createdAt,value
2022-09-30T00:01:34.848Z,23.52
2022-09-30T00:04:03.441Z,23.52
2022-09-30T00:06:35.258Z,23.51
2022-09-30T00:09:03.774Z,23.50
2022-09-30T00:11:33.981Z,23.52
2022-09-30T00:14:02.314Z,23.51
2022-09-30T00:16:31.751Z,23.49
2022-09-30T00:19:00.794Z,23.49
2022-09-30T00:21:30.624Z,23.48
2022-09-30T00:24:00.365Z,23.49
2022-09-30T00:26:28.607Z,23.48
2022-09-30T00:28:59.077Z,23.48
2022-09-30T00:31:28.416Z,23.48
2022-09-30T00:34:09.135Z,23.48
2022-09-30T00:36:39.185Z,23.47
2022-09-30T00:39:09.412Z,23.47
2022-09-30T00:41:38.639Z,23.47
2022-09-30T00:44:44.517Z,23.47
2022-09-30T00:47:28.706Z,23.46
2022-09-30T00:49:57.234Z,23.45
2022-09-30T00:52:25.609Z,23.45
2022-09-30T00:54:56.070Z,23.45
2022-09-30T00:57:24.369Z,23.45
2022-09-30T00:59:52.594Z,23.44
2022-09-30T01:02:20.918Z,23.45
2022-09-30T01:04:49.230Z,23.44
2022-09-30T01:07:20.949Z,23.42
2022-09-30T01:09:49.314Z,23.43
2022-09-30T01:12:21.566Z,23.41
2022-09-30T01:14:53.319Z,23.41
2022-09-30T01:17:24.606Z,23.40
2022-09-30T01:20:13.123Z,23.41
2022-09-30T01:22:42.885Z,23.40
2022-09-30T01:25:20.166Z,23.41
2022-09-30T01:27:57.170Z,23.41
2022-09-30T01:30:34.600Z,23.40
2022-09-30T01:33:13.510Z,23.39
2022-09-30T01:35:51.262Z,23.40
2022-09-30T01:38:24.959Z,23.39
2022-09-30T01:40:56.903Z,23.39
2022-09-30T01:43:29.883Z,23.39
2022-09-30T01:46:00.654Z,23.39
2022-09-30T01:48:32.694Z,23.39
2022-09-30T01:51:01.873Z,23.39
2022-09-30T01:53:33.124Z,23.38
2022-09-30T01:56:03.053Z,23.38
2022-09-30T01:58:38.581Z,23.38
2022-09-30T02:01:10.232Z,23.38
2022-09-30T02:03:39.770Z,23.38
2022-09-30T02:06:09.918Z,23.38
2022-09-30T02:08:41.751Z,23.37
2022-09-30T02:11:12.238Z,23.37
2022-09-30T02:13:42.996Z,23.37
2022-09-30T02:16:14.895Z,23.37
2022-09-30T02:18:44.375Z,23.36
2022-09-30T02:21:12.853Z,23.36
2022-09-30T02:23:42.707Z,23.34
2022-09-30T02:26:13.083Z,23.35
2022-09-30T02:28:43.457Z,23.34
2022-09-30T02:31:13.387Z,23.35
2022-09-30T02:33:43.662Z,23.34
2022-09-30T02:36:14.146Z,23.34
2022-09-30T02:38:43.490Z,23.33
2022-09-30T02:41:13.243Z,23.34
2022-09-30T02:43:42.234Z,23.34
2022-09-30T02:46:16.111Z,23.33
2022-09-30T02:48:45.566Z,23.33
2022-09-30T02:51:17.080Z,23.33
2022-09-30T02:53:47.558Z,23.32
2022-09-30T02:56:20.952Z,23.33
2022-09-30T02:58:49.261Z,23.34
2022-09-30T03:01:18.969Z,23.33
2022-09-30T03:03:48.195Z,23.33
2022-09-30T03:06:16.444Z,23.32
2022-09-30T03:08:45.037Z,23.33
2022-09-30T03:11:15.334Z,23.32
2022-09-30T03:14:07.619Z,23.32
2022-09-30T03:16:45.909Z,23.31
2022-09-30T03:19:23.175Z,23.31
2022-09-30T03:22:01.919Z,23.31
2022-09-30T03:24:43.277Z,23.31
2022-09-30T03:27:15.756Z,23.30
2022-09-30T03:29:48.130Z,23.29
2022-09-30T03:32:26.566Z,23.30
2022-09-30T03:35:02.418Z,23.29
2022-09-30T03:37:34.063Z,23.29
2022-09-30T03:40:04.060Z,23.30
2022-09-30T03:42:36.272Z,23.29
2022-09-30T03:45:06.542Z,23.29
2022-09-30T03:47:37.330Z,23.27
2022-09-30T03:50:08.638Z,23.27
2022-09-30T03:52:36.938Z,23.28
2022-09-30T03:55:06.561Z,23.27
2022-09-30T03:57:34.838Z,23.28
2022-09-30T04:00:03.666Z,23.26
2022-09-30T04:02:33.352Z,23.26
2022-09-30T04:05:03.028Z,23.26
2022-09-30T04:07:31.349Z,23.26
2022-09-30T04:09:59.602Z,23.25
2022-09-30T04:12:27.922Z,23.25
2022-09-30T04:14:56.186Z,23.26
2022-09-30T04:17:24.596Z,23.25
2022-09-30T04:19:52.874Z,23.25
2022-09-30T04:22:26.276Z,23.26
2022-09-30T04:24:54.885Z,23.27
2022-09-30T04:27:23.401Z,23.28
2022-09-30T04:29:51.850Z,23.27
2022-09-30T04:32:20.085Z,23.28
2022-09-30T04:34:48.622Z,23.30
2022-09-30T04:37:16.885Z,23.30
2022-09-30T04:39:46.616Z,23.32
2022-09-30T04:42:14.962Z,23.31
2022-09-30T04:44:43.353Z,23.31
2022-09-30T04:47:11.644Z,23.33
2022-09-30T04:49:40.082Z,23.33
2022-09-30T04:52:08.486Z,23.29
2022-09-30T04:54:36.758Z,23.25
2022-09-30T04:57:07.300Z,23.24
2022-09-30T04:59:35.720Z,23.27
2022-09-30T05:02:04.005Z,23.29
2022-09-30T05:04:33.628Z,23.27
2022-09-30T05:07:03.845Z,23.26
2022-09-30T05:09:32.311Z,23.27
2022-09-30T05:12:02.422Z,23.28
2022-09-30T05:14:32.436Z,23.29
2022-09-30T05:17:01.086Z,23.30
2022-09-30T05:19:29.942Z,23.31
2022-09-30T05:21:58.277Z,23.32
2022-09-30T05:24:26.698Z,23.33
2022-09-30T05:26:54.953Z,23.35
2022-09-30T05:29:23.349Z,23.36
2022-09-30T05:31:53.135Z,23.38
2022-09-30T05:34:21.563Z,23.38
2022-09-30T05:36:49.981Z,23.40
2022-09-30T05:39:18.411Z,23.41
2022-09-30T05:41:46.600Z,23.41
2022-09-30T05:44:15.472Z,23.42
2022-09-30T05:46:44.452Z,23.43
2022-09-30T05:49:14.562Z,23.43
2022-09-30T05:51:42.952Z,23.45
2022-09-30T05:54:11.230Z,23.44
2022-09-30T05:56:39.547Z,23.42
2022-09-30T05:59:07.813Z,23.41
2022-09-30T06:01:36.139Z,23.41
2022-09-30T06:04:04.513Z,23.40
2022-09-30T06:06:34.398Z,23.41
2022-09-30T06:09:02.711Z,23.41
2022-09-30T06:11:31.921Z,23.41
2022-09-30T06:14:00.280Z,23.42
2022-09-30T06:16:28.668Z,23.41
2022-09-30T06:18:56.903Z,23.41
2022-09-30T06:21:25.197Z,23.43
2022-09-30T06:23:54.863Z,23.42
2022-09-30T06:26:23.146Z,23.42
2022-09-30T06:28:51.926Z,23.42
2022-09-30T06:31:20.373Z,23.44
2022-09-30T06:33:48.625Z,23.42
2022-09-30T06:36:17.374Z,23.45
2022-09-30T06:38:45.703Z,23.48
2022-09-30T06:41:15.762Z,23.49
2022-09-30T06:43:55.658Z,23.51
2022-09-30T06:46:31.745Z,23.54
2022-09-30T06:49:11.219Z,23.55
2022-09-30T06:51:42.310Z,23.55
2022-09-30T06:54:11.053Z,23.56
2022-09-30T06:56:40.793Z,23.54
2022-09-30T06:59:09.131Z,23.55
2022-09-30T07:01:37.391Z,23.56
2022-09-30T07:04:09.760Z,23.56
2022-09-30T07:06:39.221Z,23.58
2022-09-30T07:09:07.931Z,23.59
2022-09-30T07:11:36.765Z,23.58
2022-09-30T07:14:06.502Z,23.58
2022-09-30T07:16:35.334Z,23.59
2022-09-30T07:19:03.730Z,23.59
2022-09-30T07:21:32.339Z,23.59
2022-09-30T07:24:02.049Z,23.60
2022-09-30T07:26:31.273Z,23.58
2022-09-30T07:29:00.272Z,23.57
2022-09-30T07:31:34.884Z,23.54
2022-09-30T07:34:04.223Z,23.53
2022-09-30T07:36:34.032Z,23.53
2022-09-30T07:39:06.012Z,23.55
2022-09-30T07:41:35.916Z,23.54
2022-09-30T07:44:06.715Z,23.53
2022-09-30T07:46:39.398Z,23.55
2022-09-30T07:49:09.261Z,23.55
2022-09-30T07:51:39.235Z,23.55
2022-09-30T07:54:09.065Z,23.55
2022-09-30T07:57:08.044Z,23.56
2022-09-30T07:59:27.396Z,23.56
2022-09-30T08:01:57.591Z,23.58
2022-09-30T08:04:26.289Z,23.57
2022-09-30T08:06:55.899Z,23.56
2022-09-30T08:09:25.399Z,23.56
2022-09-30T08:11:53.884Z,23.55
2022-09-30T08:14:23.138Z,23.56
2022-09-30T08:16:51.636Z,23.56
2022-09-30T08:19:22.283Z,23.57
2022-09-30T08:21:50.711Z,23.58
2022-09-30T08:24:19.038Z,23.59
2022-09-30T08:26:47.517Z,23.58
2022-09-30T08:29:24.927Z,23.59
2022-09-30T08:31:58.564Z,23.59
2022-09-30T08:34:33.913Z,23.59
2022-09-30T08:37:06.318Z,23.58
2022-09-30T08:39:37.396Z,23.58
2022-09-30T08:42:45.315Z,23.57
2022-09-30T08:45:20.385Z,23.57
2022-09-30T08:47:51.333Z,23.56
2022-09-30T08:50:24.936Z,23.57
2022-09-30T08:52:55.222Z,23.57
2022-09-30T08:55:24.827Z,23.56
2022-09-30T08:57:53.509Z,23.55
2022-09-30T09:00:22.643Z,23.57
2022-09-30T09:02:51.961Z,23.58
2022-09-30T09:05:28.598Z,23.59
2022-09-30T09:08:02.789Z,23.60
2022-09-30T09:10:35.761Z,23.59
2022-09-30T09:13:07.910Z,23.58
2022-09-30T09:15:47.326Z,23.58
2022-09-30T09:18:36.316Z,23.57
2022-09-30T09:21:14.954Z,23.55
2022-09-30T09:23:43.216Z,23.52
2022-09-30T09:26:12.151Z,23.50
2022-09-30T09:28:42.060Z,23.50
2022-09-30T09:31:14.499Z,23.50
2022-09-30T09:33:42.946Z,23.52
2022-09-30T09:36:19.811Z,23.52
2022-09-30T09:38:58.598Z,23.53
2022-09-30T09:41:32.660Z,23.53
2022-09-30T09:44:03.178Z,23.53
2022-09-30T09:46:32.622Z,23.55
2022-09-30T09:49:41.785Z,23.55
2022-09-30T09:52:24.559Z,23.56
2022-09-30T09:54:57.006Z,23.57
2022-09-30T09:57:27.921Z,23.58
2022-09-30T09:59:57.449Z,23.58
2022-09-30T10:02:26.767Z,23.60
2022-09-30T10:05:00.301Z,23.60
2022-09-30T10:07:30.866Z,23.62
2022-09-30T10:10:12.515Z,23.64
2022-09-30T10:12:41.129Z,23.64
2022-09-30T10:15:20.410Z,23.65
2022-09-30T10:17:53.235Z,23.67
2022-09-30T10:20:26.059Z,23.67
2022-09-30T10:23:09.570Z,23.67
2022-09-30T10:25:37.950Z,23.69
2022-09-30T10:28:21.648Z,23.70
2022-09-30T10:30:51.007Z,23.70
2022-09-30T10:33:25.496Z,23.70
2022-09-30T10:36:00.608Z,23.71
2022-09-30T10:38:32.248Z,23.69
2022-09-30T10:41:00.651Z,23.70
2022-09-30T10:43:31.517Z,23.71
2022-09-30T10:46:24.742Z,23.72
2022-09-30T10:48:52.158Z,23.71
2022-09-30T10:51:25.084Z,23.71
2022-09-30T10:53:55.166Z,23.71
2022-09-30T10:56:45.065Z,23.70
2022-09-30T10:59:29.807Z,23.71
2022-09-30T11:02:00.061Z,23.70
2022-09-30T11:04:32.283Z,23.70
2022-09-30T11:07:04.863Z,23.69
2022-09-30T11:09:37.943Z,23.69
2022-09-30T11:12:11.526Z,23.69
2022-09-30T11:14:43.459Z,23.67
2022-09-30T11:17:18.041Z,23.70
2022-09-30T11:19:51.273Z,23.69
2022-09-30T11:22:29.607Z,23.68
2022-09-30T11:24:59.507Z,23.69
2022-09-30T11:27:34.175Z,23.69
2022-09-30T11:30:09.930Z,23.69
2022-09-30T11:32:54.430Z,23.69
2022-09-30T11:35:29.885Z,23.67
2022-09-30T11:38:06.022Z,23.67
2022-09-30T11:40:39.486Z,23.67
2022-09-30T11:43:15.579Z,23.67
2022-09-30T11:45:58.664Z,23.67
2022-09-30T11:48:35.499Z,23.67
2022-09-30T11:51:09.122Z,23.67
2022-09-30T11:53:43.642Z,23.67
2022-09-30T11:56:20.962Z,23.67
2022-09-30T11:58:50.449Z,23.68
2022-09-30T12:01:22.526Z,23.69
2022-09-30T12:03:56.274Z,23.69
2022-09-30T12:06:28.237Z,23.70
2022-09-30T12:08:58.229Z,23.69
2022-09-30T12:11:34.145Z,23.67
2022-09-30T12:14:04.909Z,23.67
2022-09-30T12:16:33.946Z,23.67
2022-09-30T12:19:05.802Z,23.68
2022-09-30T12:21:37.517Z,23.67
2022-09-30T12:24:08.477Z,23.68
2022-09-30T12:26:38.391Z,23.69
2022-09-30T12:29:25.714Z,23.68
2022-09-30T12:32:10.024Z,23.69
2022-09-30T12:34:46.149Z,23.68
2022-09-30T12:37:22.670Z,23.69
2022-09-30T12:40:06.802Z,23.69
2022-09-30T12:43:30.353Z,23.69
2022-09-30T12:46:15.118Z,23.68
2022-09-30T12:48:45.227Z,23.67
2022-09-30T12:51:13.972Z,23.67
2022-09-30T12:53:42.174Z,23.67
2022-09-30T12:56:11.735Z,23.67
2022-09-30T12:58:44.158Z,23.66
2022-09-30T13:01:17.027Z,23.66
2022-09-30T13:03:47.830Z,23.65
2022-09-30T13:06:16.321Z,23.66
2022-09-30T13:08:47.395Z,23.64
2022-09-30T13:11:40.504Z,23.63
2022-09-30T13:14:26.200Z,23.62
2022-09-30T13:17:21.947Z,23.60
2022-09-30T13:19:51.948Z,23.59
2022-09-30T13:22:57.510Z,23.60
2022-09-30T13:25:25.711Z,23.60
2022-09-30T13:27:55.652Z,23.59
2022-09-30T13:30:34.590Z,23.59
2022-09-30T13:33:34.235Z,23.59
2022-09-30T13:36:10.342Z,23.58
2022-09-30T13:38:40.602Z,23.57
2022-09-30T13:41:20.633Z,23.58
2022-09-30T13:43:53.653Z,23.58
2022-09-30T13:46:26.362Z,23.58
2022-09-30T13:48:58.778Z,23.59
2022-09-30T13:51:28.777Z,23.58
2022-09-30T13:53:59.787Z,23.56
2022-09-30T13:56:29.466Z,23.54
2022-09-30T13:59:21.906Z,23.52
2022-09-30T14:02:04.003Z,23.51
2022-09-30T14:05:01.088Z,23.51
2022-09-30T14:07:40.150Z,23.52
2022-09-30T14:10:25.528Z,23.53
2022-09-30T14:13:03.165Z,23.55
2022-09-30T14:15:57.481Z,23.56
2022-09-30T14:18:54.706Z,23.57
2022-09-30T14:21:39.826Z,23.57
2022-09-30T14:24:12.382Z,23.56
2022-09-30T14:26:53.023Z,23.56
2022-09-30T14:29:25.013Z,23.56
2022-09-30T14:31:53.368Z,23.57
2022-09-30T14:34:22.175Z,23.57
2022-09-30T14:36:52.030Z,23.58
2022-09-30T14:39:21.442Z,23.57
2022-09-30T14:41:51.903Z,23.56
2022-09-30T14:44:20.718Z,23.56
2022-09-30T14:46:49.460Z,23.54
2022-09-30T14:49:19.072Z,23.51
2022-09-30T14:51:48.644Z,23.52
2022-09-30T14:54:19.755Z,23.50
2022-09-30T14:56:48.359Z,23.50
2022-09-30T14:59:22.501Z,23.51
2022-09-30T15:01:51.755Z,23.50
2022-09-30T15:04:21.301Z,23.50
2022-09-30T15:06:50.942Z,23.50
2022-09-30T15:09:31.587Z,23.49
2022-09-30T15:12:05.087Z,23.50
2022-09-30T15:14:34.174Z,23.49
2022-09-30T15:17:06.064Z,23.48
2022-09-30T15:19:35.439Z,23.48
2022-09-30T15:22:04.643Z,23.48
2022-09-30T15:24:34.510Z,23.48
2022-09-30T15:27:02.956Z,23.48
2022-09-30T15:29:31.311Z,23.46
2022-09-30T15:32:02.382Z,23.44
2022-09-30T15:34:30.927Z,23.42
2022-09-30T15:37:04.665Z,23.40
2022-09-30T15:39:48.979Z,23.37
2022-09-30T15:42:30.433Z,23.36
2022-09-30T15:44:59.437Z,23.33
2022-09-30T15:47:27.851Z,23.34
2022-09-30T15:49:56.094Z,23.35
2022-09-30T15:52:36.587Z,23.35
2022-09-30T15:55:37.050Z,23.35
2022-09-30T15:58:05.310Z,23.37
2022-09-30T16:00:43.044Z,23.37
2022-09-30T16:03:32.691Z,23.37
2022-09-30T16:06:09.283Z,23.37
2022-09-30T16:08:44.338Z,23.37
2022-09-30T16:11:20.625Z,23.38
2022-09-30T16:13:49.107Z,23.38
2022-09-30T16:16:21.418Z,23.40
2022-09-30T16:18:49.987Z,23.40
2022-09-30T16:21:44.389Z,23.41
2022-09-30T16:24:48.798Z,23.41
2022-09-30T16:27:39.943Z,23.46
2022-09-30T16:30:08.701Z,23.51
2022-09-30T16:32:41.080Z,23.55
2022-09-30T16:35:16.573Z,23.56
2022-09-30T16:37:45.359Z,23.58
2022-09-30T16:40:31.562Z,23.59
2022-09-30T16:43:04.363Z,23.62
2022-09-30T16:45:35.221Z,23.61
2022-09-30T16:48:03.789Z,23.64
2022-09-30T16:50:35.105Z,23.65
2022-09-30T16:53:03.277Z,23.66
2022-09-30T16:55:31.634Z,23.67
2022-09-30T16:58:04.762Z,23.68
2022-09-30T17:00:33.042Z,23.69
2022-09-30T17:03:01.264Z,23.71
2022-09-30T17:05:29.530Z,23.72
2022-09-30T17:07:59.271Z,23.73
2022-09-30T17:10:29.119Z,23.74
2022-09-30T17:12:57.651Z,23.71
2022-09-30T17:15:28.199Z,23.71
2022-09-30T17:17:56.626Z,23.72
2022-09-30T17:20:24.914Z,23.71
2022-09-30T17:22:53.234Z,23.73
2022-09-30T17:25:21.695Z,23.72
2022-09-30T17:27:50.701Z,23.71
2022-09-30T17:30:19.376Z,23.71
2022-09-30T17:32:49.114Z,23.69
2022-09-30T17:35:17.521Z,23.70
2022-09-30T17:37:46.653Z,23.70
2022-09-30T17:40:33.134Z,23.72
2022-09-30T17:43:11.657Z,23.73
2022-09-30T17:45:41.350Z,23.75
2022-09-30T17:48:11.939Z,23.74
2022-09-30T17:50:40.889Z,23.73
2022-09-30T17:53:09.428Z,23.73
2022-09-30T17:55:37.673Z,23.73
2022-09-30T17:58:06.153Z,23.75
2022-09-30T18:00:34.351Z,23.75
2022-09-30T18:03:03.474Z,23.75
2022-09-30T18:05:33.180Z,23.75
2022-09-30T18:08:01.712Z,23.76
2022-09-30T18:10:30.259Z,23.77
2022-09-30T18:12:59.956Z,23.77
2022-09-30T18:15:28.604Z,23.77
2022-09-30T18:17:57.783Z,23.78
2022-09-30T18:20:26.248Z,23.78
2022-09-30T18:22:56.949Z,23.78
2022-09-30T18:25:26.411Z,23.79
2022-09-30T18:27:56.339Z,23.79
2022-09-30T18:30:25.434Z,23.82
2022-09-30T18:32:54.533Z,23.80
2022-09-30T18:35:24.673Z,23.83
2022-09-30T18:37:55.464Z,23.82
2022-09-30T18:40:26.269Z,23.83
2022-09-30T18:42:58.690Z,23.83
2022-09-30T18:45:27.663Z,23.83
2022-09-30T18:47:57.035Z,23.85
2022-09-30T18:50:26.858Z,23.85
2022-09-30T18:52:57.068Z,23.86
2022-09-30T18:55:25.967Z,23.88
2022-09-30T18:57:55.685Z,23.89
2022-09-30T19:00:24.078Z,23.91
2022-09-30T19:02:53.437Z,23.92
2022-09-30T19:05:22.408Z,23.94
2022-09-30T19:07:50.761Z,23.94
2022-09-30T19:10:20.499Z,23.96
2022-09-30T19:12:50.090Z,23.98
2022-09-30T19:15:18.818Z,24.00
2022-09-30T19:17:47.103Z,24.03
2022-09-30T19:20:16.733Z,24.08
2022-09-30T19:22:45.039Z,24.13
2022-09-30T19:25:13.265Z,24.13
2022-09-30T19:27:43.430Z,24.13
2022-09-30T19:30:12.949Z,24.13
2022-09-30T19:32:41.291Z,24.13
2022-09-30T19:35:12.088Z,24.11
2022-09-30T19:37:55.795Z,24.09
2022-09-30T19:40:28.390Z,24.08
2022-09-30T19:42:58.105Z,24.06
2022-09-30T19:45:27.417Z,24.08
2022-09-30T19:47:56.897Z,24.06
2022-09-30T19:50:25.237Z,24.06
2022-09-30T19:52:57.259Z,24.07
2022-09-30T19:55:26.634Z,24.06
2022-09-30T19:57:54.930Z,24.06
2022-09-30T20:00:24.714Z,24.06
2022-09-30T20:02:52.893Z,24.06
2022-09-30T20:05:21.680Z,24.06
2022-09-30T20:07:51.373Z,24.06
2022-09-30T20:10:20.134Z,24.05
2022-09-30T20:12:48.489Z,24.05
2022-09-30T20:15:34.249Z,24.06
2022-09-30T20:18:04.035Z,24.05
2022-09-30T20:20:42.867Z,24.04
2022-09-30T20:23:11.081Z,24.05
2022-09-30T20:25:39.555Z,24.05
2022-09-30T20:28:07.994Z,24.06
2022-09-30T20:30:39.550Z,24.04
2022-09-30T20:33:09.277Z,24.04
2022-09-30T20:35:37.814Z,24.03
2022-09-30T20:38:06.925Z,24.04
2022-09-30T20:40:35.355Z,24.04
2022-09-30T20:43:04.378Z,24.04
2022-09-30T20:45:32.681Z,24.04
2022-09-30T20:48:01.114Z,24.04
2022-09-30T20:50:36.550Z,24.03
2022-09-30T20:53:06.905Z,24.04
2022-09-30T20:55:36.663Z,24.03
2022-09-30T20:58:05.681Z,24.02
2022-09-30T21:00:34.650Z,24.03
2022-09-30T21:03:03.056Z,24.03
2022-09-30T21:05:32.800Z,24.02
2022-09-30T21:08:02.349Z,24.02
2022-09-30T21:10:31.814Z,24.02
2022-09-30T21:13:02.239Z,24.03
2022-09-30T21:15:31.344Z,24.02
2022-09-30T21:17:59.818Z,24.01
2022-09-30T21:20:28.051Z,24.02
2022-09-30T21:22:57.756Z,24.01
2022-09-30T21:25:26.066Z,24.00
2022-09-30T21:27:54.553Z,24.00
2022-09-30T21:30:23.599Z,24.00
2022-09-30T21:32:51.914Z,24.00
2022-09-30T21:35:21.174Z,24.00
2022-09-30T21:37:50.005Z,23.99
2022-09-30T21:40:20.322Z,23.98
2022-09-30T21:42:48.827Z,23.98
2022-09-30T21:45:18.799Z,23.99
2022-09-30T21:47:47.111Z,23.98
2022-09-30T21:50:15.419Z,23.98
2022-09-30T21:52:45.794Z,23.97
2022-09-30T21:55:15.108Z,23.97
2022-09-30T21:57:46.027Z,23.96
2022-09-30T22:00:14.512Z,23.96
2022-09-30T22:02:42.748Z,23.97
2022-09-30T22:05:11.039Z,23.96
2022-09-30T22:07:39.371Z,23.96
2022-09-30T22:10:09.126Z,23.95
2022-09-30T22:12:38.410Z,23.95
2022-09-30T22:15:09.437Z,23.95
2022-09-30T22:17:37.874Z,23.94
2022-09-30T22:20:07.046Z,23.94
2022-09-30T22:22:35.709Z,23.93
2022-09-30T22:25:03.978Z,23.93
2022-09-30T22:27:32.481Z,23.93
2022-09-30T22:30:00.778Z,23.92
2022-09-30T22:32:30.414Z,23.92
2022-09-30T22:35:15.850Z,23.92
2022-09-30T22:38:01.688Z,23.90
2022-09-30T22:40:29.990Z,23.91
2022-09-30T22:42:58.162Z,23.90
2022-09-30T22:45:26.839Z,23.90
2022-09-30T22:47:57.053Z,23.89
2022-09-30T22:50:28.817Z,23.89
2022-09-30T22:52:58.162Z,23.89
2022-09-30T22:55:26.455Z,23.89
2022-09-30T22:57:54.687Z,23.88
2022-09-30T23:00:22.923Z,23.87
2022-09-30T23:02:52.998Z,23.87
2022-09-30T23:05:22.786Z,23.87
2022-09-30T23:07:51.206Z,23.87
2022-09-30T23:10:19.495Z,23.86
2022-09-30T23:12:47.818Z,23.85
2022-09-30T23:15:16.238Z,23.85
2022-09-30T23:17:44.457Z,23.84
2022-09-30T23:20:12.929Z,23.86
2022-09-30T23:22:42.879Z,23.84
2022-09-30T23:25:11.488Z,23.84
2022-09-30T23:27:39.759Z,23.83
2022-09-30T23:30:08.824Z,23.83
2022-09-30T23:32:37.970Z,23.83
2022-09-30T23:35:06.857Z,23.82
2022-09-30T23:37:35.297Z,23.83
2022-09-30T23:40:05.367Z,23.81
2022-09-30T23:42:33.802Z,23.82
2022-09-30T23:45:01.988Z,23.81
2022-09-30T23:47:30.435Z,23.82
2022-09-30T23:49:58.664Z,23.80
2022-09-30T23:52:26.918Z,23.80
2022-09-30T23:54:55.522Z,23.80
2022-09-30T23:57:25.306Z,23.80
2022-09-30T23:59:53.618Z,23.79
